This is the latest recevied weather packets stored in our database for station/object KD7CIH. If no packets are shown the sender has not sent any weather packets the latest 10 day(s).
| Time | Temp. | Humidity | Pressure | Rain* | Wind** | Luminosity | Snow |
|---|---|---|---|---|---|---|---|
| 1787530388 | 26.67° C | 30% | 1017 hPa | 0 mm | - | - | - |
| 1787530087 | 26.67° C | 30% | 1017.1 hPa | 0 mm | - | - | - |
| 1787529786 | 26.67° C | 30% | 1017.1 hPa | 0 mm | - | - | - |
| 1787529614 | 26.67° C | 30% | 1017 hPa | 0 mm | - | - | - |
| 1787529315 | 26.67° C | 30% | 1017 hPa | 0 mm | - | - | - |
| 1787528884 | 27.22° C | 29% | 1017 hPa | 0 mm | - | - | - |
| 1787528587 | 27.78° C | 29% | 1017 hPa | 0 mm | - | - | - |
| 1787528287 | 27.22° C | 29% | 1016.8 hPa | 0 mm | - | - | - |
| 1787527988 | 27.22° C | 29% | 1017 hPa | 0 mm | - | - | - |
| 1787527688 | 26.67° C | 31% | 1016.9 hPa | 0 mm | - | - | - |
| 1787527515 | 26.67° C | 32% | 1016.9 hPa | 0 mm | - | - | - |
| 1787527215 | 26.11° C | 33% | 1017 hPa | 0 mm | - | - | - |
| 1787526786 | 26.11° C | 32% | 1017 hPa | 0 mm | - | - | - |
| 1787526614 | 26.11° C | 34% | 1016.9 hPa | 0 mm | - | - | - |
| 1787526315 | 25.56° C | 36% | 1017 hPa | 0 mm | - | - | - |
| 1787525887 | 25.56° C | 34% | 1017 hPa | 0 mm | - | - | - |
| 1787525588 | 25.56° C | 34% | 1017 hPa | 0 mm | - | - | - |
| 1787525289 | 25.56° C | 33% | 1017.1 hPa | 0 mm | - | - | - |
| 1787525115 | 25.56° C | 34% | 1017.2 hPa | 0 mm | - | - | - |
| 1787524689 | 25.56° C | 33% | 1017.1 hPa | 0 mm | - | - | - |
| 1787524390 | 25.56° C | 33% | 1017.2 hPa | 0 mm | - | - | - |
| 1787524087 | 26.11° C | 33% | 1017.5 hPa | 0 mm | - | - | - |
| 1787523786 | 26.67° C | 30% | 1017.5 hPa | 0 mm | - | - | - |
| 1787523488 | 28.33° C | 28% | 1017.5 hPa | 0 mm | - | - | - |
| 1787523190 | 28.89° C | 22% | 1017.2 hPa | 0 mm | - | - | - |
* Rain latest hour (hover to see other rain measurements)
** Current wind speed in m/s (hover to see current wind gust speed)